sensor_id;sensor_type;location;lat;lon;timestamp;pressure;altitude;pressure_sealevel;temperature;humidity
50484;BME280;36409;52.168;20.878;2024-01-27T00:00:39;100244.24;;;3.26;79.58
50484;BME280;36409;52.168;20.878;2024-01-27T00:03:29;100248.53;;;3.27;79.81
50484;BME280;36409;52.168;20.878;2024-01-27T00:05:58;100261.42;;;3.27;79.43
50484;BME280;36409;52.168;20.878;2024-01-27T00:08:29;100264.01;;;3.27;79.26
50484;BME280;36409;52.168;20.878;2024-01-27T00:11:01;100268.31;;;3.26;79.25
50484;BME280;36409;52.168;20.878;2024-01-27T00:13:30;100271.73;;;3.25;79.54
50484;BME280;36409;52.168;20.878;2024-01-27T00:16:00;100279.48;;;3.25;79.55
50484;BME280;36409;52.168;20.878;2024-01-27T00:18:29;100292.39;;;3.27;80.01
50484;BME280;36409;52.168;20.878;2024-01-27T00:20:58;100289.80;;;3.25;79.30
50484;BME280;36409;52.168;20.878;2024-01-27T00:23:27;100303.54;;;3.24;79.96
50484;BME280;36409;52.168;20.878;2024-01-27T00:26:01;100306.96;;;3.23;80.07
50484;BME280;36409;52.168;20.878;2024-01-27T00:28:30;100312.12;;;3.23;79.57
50484;BME280;36409;52.168;20.878;2024-01-27T00:30:59;100307.80;;;3.22;79.63
50484;BME280;36409;52.168;20.878;2024-01-27T00:33:28;100320.69;;;3.20;79.88
50484;BME280;36409;52.168;20.878;2024-01-27T00:35:58;100331.01;;;3.20;80.15
50484;BME280;36409;52.168;20.878;2024-01-27T00:38:27;100331.00;;;3.19;79.45
50484;BME280;36409;52.168;20.878;2024-01-27T00:40:56;100331.00;;;3.19;80.04
50484;BME280;36409;52.168;20.878;2024-01-27T00:43:24;100337.85;;;3.18;80.32
50484;BME280;36409;52.168;20.878;2024-01-27T00:45:54;100339.58;;;3.18;79.79
50484;BME280;36409;52.168;20.878;2024-01-27T00:48:23;100337.84;;;3.17;79.93
50484;BME280;36409;52.168;20.878;2024-01-27T00:50:53;100355.01;;;3.16;79.44
50484;BME280;36409;52.168;20.878;2024-01-27T00:53:25;100356.73;;;3.16;79.52
50484;BME280;36409;52.168;20.878;2024-01-27T00:55:54;100361.88;;;3.14;79.45
50484;BME280;36409;52.168;20.878;2024-01-27T00:58:24;100363.58;;;3.14;80.22
50484;BME280;36409;52.168;20.878;2024-01-27T01:00:53;100360.98;;;3.12;79.86
50484;BME280;36409;52.168;20.878;2024-01-27T01:03:22;100370.39;;;3.08;79.66
50484;BME280;36409;52.168;20.878;2024-01-27T01:05:51;100377.23;;;3.06;79.56
50484;BME280;36409;52.168;20.878;2024-01-27T01:08:20;100374.59;;;3.03;80.04
50484;BME280;36409;52.168;20.878;2024-01-27T01:10:49;100388.32;;;3.02;79.89
50484;BME280;36409;52.168;20.878;2024-01-27T01:13:22;100381.42;;;3.01;80.17
50484;BME280;36409;52.168;20.878;2024-01-27T01:15:51;100393.42;;;2.99;79.99
50484;BME280;36409;52.168;20.878;2024-01-27T01:18:21;100386.55;;;2.98;80.11
50484;BME280;36409;52.168;20.878;2024-01-27T01:20:50;100383.03;;;2.94;80.00
50484;BME280;36409;52.168;20.878;2024-01-27T01:23:21;100389.01;;;2.92;80.21
50484;BME280;36409;52.168;20.878;2024-01-27T01:25:50;100399.26;;;2.89;80.17
50484;BME280;36409;52.168;20.878;2024-01-27T01:28:22;100397.50;;;2.86;79.31
50484;BME280;36409;52.168;20.878;2024-01-27T01:30:51;100394.02;;;2.84;79.52
50484;BME280;36409;52.168;20.878;2024-01-27T01:33:24;100400.86;;;2.82;79.63
50484;BME280;36409;52.168;20.878;2024-01-27T01:35:56;100409.47;;;2.81;79.37
50484;BME280;36409;52.168;20.878;2024-01-27T01:38:26;100405.09;;;2.78;79.35
50484;BME280;36409;52.168;20.878;2024-01-27T01:40:55;100407.66;;;2.77;80.27
50484;BME280;36409;52.168;20.878;2024-01-27T01:43:27;100416.23;;;2.76;79.67
50484;BME280;36409;52.168;20.878;2024-01-27T01:45:56;100412.81;;;2.77;80.15
50484;BME280;36409;52.168;20.878;2024-01-27T01:48:28;100413.66;;;2.76;79.57
50484;BME280;36409;52.168;20.878;2024-01-27T01:51:02;100431.70;;;2.76;80.26
50484;BME280;36409;52.168;20.878;2024-01-27T01:53:33;100420.55;;;2.77;79.43
50484;BME280;36409;52.168;20.878;2024-01-27T01:56:02;100416.23;;;2.76;79.69
50484;BME280;36409;52.168;20.878;2024-01-27T01:58:31;100418.80;;;2.76;80.03
50484;BME280;36409;52.168;20.878;2024-01-27T02:01:02;100417.08;;;2.76;80.20
50484;BME280;36409;52.168;20.878;2024-01-27T02:03:36;100417.08;;;2.76;79.83
50484;BME280;36409;52.168;20.878;2024-01-27T02:06:09;100431.70;;;2.76;79.33
50484;BME280;36409;52.168;20.878;2024-01-27T02:08:38;100423.96;;;2.76;79.51
50484;BME280;36409;52.168;20.878;2024-01-27T02:11:08;100426.54;;;2.76;80.26
50484;BME280;36409;52.168;20.878;2024-01-27T02:13:37;100433.44;;;2.77;79.83
50484;BME280;36409;52.168;20.878;2024-01-27T02:16:08;100423.96;;;2.76;79.42
50484;BME280;36409;52.168;20.878;2024-01-27T02:18:37;100424.81;;;2.76;80.29
50484;BME280;36409;52.168;20.878;2024-01-27T02:21:07;100427.39;;;2.76;79.72
50484;BME280;36409;52.168;20.878;2024-01-27T02:23:36;100433.44;;;2.77;79.73
50484;BME280;36409;52.168;20.878;2024-01-27T02:26:05;100436.03;;;2.78;80.03
50484;BME280;36409;52.168;20.878;2024-01-27T02:28:34;100436.92;;;2.79;79.41
50484;BME280;36409;52.168;20.878;2024-01-27T02:31:04;100443.77;;;2.78;80.06
50484;BME280;36409;52.168;20.878;2024-01-27T02:33:33;100441.23;;;2.80;80.47
50484;BME280;36409;52.168;20.878;2024-01-27T02:36:04;100441.19;;;2.78;80.13
50484;BME280;36409;52.168;20.878;2024-01-27T02:38:34;100444.60;;;2.77;80.17
50484;BME280;36409;52.168;20.878;2024-01-27T02:41:03;100442.03;;;2.77;79.82
50484;BME280;36409;52.168;20.878;2024-01-27T02:43:34;100437.70;;;2.76;79.85
50484;BME280;36409;52.168;20.878;2024-01-27T02:46:03;100448.02;;;2.76;79.42
50484;BME280;36409;52.168;20.878;2024-01-27T02:48:32;100450.58;;;2.75;79.83
50484;BME280;36409;52.168;20.878;2024-01-27T02:51:03;100449.73;;;2.74;79.93
50484;BME280;36409;52.168;20.878;2024-01-27T02:53:36;100454.88;;;2.74;80.35
50484;BME280;36409;52.168;20.878;2024-01-27T02:56:10;100454.83;;;2.73;79.42
50484;BME280;36409;52.168;20.878;2024-01-27T02:58:42;100465.14;;;2.73;79.48
50484;BME280;36409;52.168;20.878;2024-01-27T03:01:21;100463.45;;;2.73;79.72
50484;BME280;36409;52.168;20.878;2024-01-27T03:03:50;100469.45;;;2.72;79.37
50484;BME280;36409;52.168;20.878;2024-01-27T03:06:23;100464.29;;;2.72;79.78
50484;BME280;36409;52.168;20.878;2024-01-27T03:08:53;100468.61;;;2.73;80.08
50484;BME280;36409;52.168;20.878;2024-01-27T03:11:23;100477.17;;;2.72;80.04
50484;BME280;36409;52.168;20.878;2024-01-27T03:13:56;100475.45;;;2.73;79.40
50484;BME280;36409;52.168;20.878;2024-01-27T03:16:25;100484.08;;;2.73;79.74
50484;BME280;36409;52.168;20.878;2024-01-27T03:18:57;100481.52;;;2.75;80.19
50484;BME280;36409;52.168;20.878;2024-01-27T03:21:29;100472.92;;;2.74;79.75
50484;BME280;36409;52.168;20.878;2024-01-27T03:24:00;100478.10;;;2.76;80.05
50484;BME280;36409;52.168;20.878;2024-01-27T03:26:30;100484.98;;;2.75;79.66
50484;BME280;36409;52.168;20.878;2024-01-27T03:29:01;100482.41;;;2.75;79.52
50484;BME280;36409;52.168;20.878;2024-01-27T03:31:49;100483.26;;;2.76;79.65
50484;BME280;36409;52.168;20.878;2024-01-27T03:34:18;100479.83;;;2.75;79.61
50484;BME280;36409;52.168;20.878;2024-01-27T03:36:49;100481.53;;;2.76;79.48
50484;BME280;36409;52.168;20.878;2024-01-27T03:39:18;100485.83;;;2.76;79.40
50484;BME280;36409;52.168;20.878;2024-01-27T03:41:54;100487.56;;;2.75;79.82
50484;BME280;36409;52.168;20.878;2024-01-27T03:44:23;100488.41;;;2.76;80.07
50484;BME280;36409;52.168;20.878;2024-01-27T03:46:58;100489.31;;;2.78;79.86
50484;BME280;36409;52.168;20.878;2024-01-27T03:49:27;100494.47;;;2.78;79.54
50484;BME280;36409;52.168;20.878;2024-01-27T03:51:59;100490.16;;;2.77;79.81
50484;BME280;36409;52.168;20.878;2024-01-27T03:54:31;100491.84;;;2.76;79.81
50484;BME280;36409;52.168;20.878;2024-01-27T03:57:00;100491.89;;;2.78;79.25
50484;BME280;36409;52.168;20.878;2024-01-27T03:59:29;100503.05;;;2.77;79.34
50484;BME280;36409;52.168;20.878;2024-01-27T04:02:02;100510.80;;;2.78;79.62
50484;BME280;36409;52.168;20.878;2024-01-27T04:04:31;100508.22;;;2.78;80.16
50484;BME280;36409;52.168;20.878;2024-01-27T04:07:01;100508.20;;;2.77;80.10
50484;BME280;36409;52.168;20.878;2024-01-27T04:09:30;100513.36;;;2.77;79.59
50484;BME280;36409;52.168;20.878;2024-01-27T04:11:59;100503.88;;;2.76;79.37
50484;BME280;36409;52.168;20.878;2024-01-27T04:14:28;100507.30;;;2.75;79.66
50484;BME280;36409;52.168;20.878;2024-01-27T04:17:02;100509.85;;;2.73;79.26
50484;BME280;36409;52.168;20.878;2024-01-27T04:19:31;100501.23;;;2.73;80.08
50484;BME280;36409;52.168;20.878;2024-01-27T04:22:02;100502.13;;;2.73;79.33
50484;BME280;36409;52.168;20.878;2024-01-27T04:24:31;100501.22;;;2.71;79.80
50484;BME280;36409;52.168;20.878;2024-01-27T04:27:00;100511.53;;;2.71;79.55
50484;BME280;36409;52.168;20.878;2024-01-27T04:29:30;100511.53;;;2.71;79.28
50484;BME280;36409;52.168;20.878;2024-01-27T04:31:59;100502.91;;;2.71;79.85
50484;BME280;36409;52.168;20.878;2024-01-27T04:34:33;100513.20;;;2.69;80.01
50484;BME280;36409;52.168;20.878;2024-01-27T04:37:02;100520.93;;;2.69;80.01
50484;BME280;36409;52.168;20.878;2024-01-27T04:39:35;100521.77;;;2.68;79.65
50484;BME280;36409;52.168;20.878;2024-01-27T04:42:05;100524.34;;;2.68;79.66
50484;BME280;36409;52.168;20.878;2024-01-27T04:44:39;100527.81;;;2.69;79.72
50484;BME280;36409;52.168;20.878;2024-01-27T04:47:09;100533.82;;;2.69;79.03
50484;BME280;36409;52.168;20.878;2024-01-27T04:49:38;100530.41;;;2.70;79.85
50484;BME280;36409;52.168;20.878;2024-01-27T04:52:09;100541.55;;;2.69;79.44
50484;BME280;36409;52.168;20.878;2024-01-27T04:54:38;100532.08;;;2.68;79.55
50484;BME280;36409;52.168;20.878;2024-01-27T04:57:08;100537.28;;;2.70;79.96
50484;BME280;36409;52.168;20.878;2024-01-27T04:59:38;100546.69;;;2.68;78.99
50484;BME280;36409;52.168;20.878;2024-01-27T05:02:07;100534.63;;;2.67;79.02
50484;BME280;36409;52.168;20.878;2024-01-27T05:04:37;100546.63;;;2.66;79.26
50484;BME280;36409;52.168;20.878;2024-01-27T05:07:08;100541.46;;;2.65;79.83
50484;BME280;36409;52.168;20.878;2024-01-27T05:09:42;100543.18;;;2.64;78.92
50484;BME280;36409;52.168;20.878;2024-01-27T05:12:13;100541.44;;;2.63;79.65
50484;BME280;36409;52.168;20.878;2024-01-27T05:14:44;100543.13;;;2.62;79.35
50484;BME280;36409;52.168;20.878;2024-01-27T05:17:13;100549.19;;;2.65;79.16
50484;BME280;36409;52.168;20.878;2024-01-27T05:19:43;100541.44;;;2.63;79.09
50484;BME280;36409;52.168;20.878;2024-01-27T05:22:12;100548.28;;;2.62;79.63
50484;BME280;36409;52.168;20.878;2024-01-27T05:24:41;100545.70;;;2.62;79.34
50484;BME280;36409;52.168;20.878;2024-01-27T05:27:10;100547.45;;;2.63;78.98
50484;BME280;36409;52.168;20.878;2024-01-27T05:29:39;100547.42;;;2.62;79.61
50484;BME280;36409;52.168;20.878;2024-01-27T05:32:09;100549.12;;;2.61;79.61
50484;BME280;36409;52.168;20.878;2024-01-27T05:34:38;100545.63;;;2.59;79.32
50484;BME280;36409;52.168;20.878;2024-01-27T05:37:07;100534.45;;;2.57;79.02
50484;BME280;36409;52.168;20.878;2024-01-27T05:39:38;100534.38;;;2.54;78.82
50484;BME280;36409;52.168;20.878;2024-01-27T05:42:08;100526.62;;;2.53;79.48
50484;BME280;36409;52.168;20.878;2024-01-27T05:44:37;100530.89;;;2.52;78.88
50484;BME280;36409;52.168;20.878;2024-01-27T05:47:09;100523.99;;;2.51;78.85
50484;BME280;36409;52.168;20.878;2024-01-27T05:49:40;100527.41;;;2.50;79.65
50484;BME280;36409;52.168;20.878;2024-01-27T05:52:10;100527.41;;;2.50;79.47
50484;BME280;36409;52.168;20.878;2024-01-27T05:54:53;100520.50;;;2.49;79.71
50484;BME280;36409;52.168;20.878;2024-01-27T05:57:22;100530.03;;;2.52;79.03
50484;BME280;36409;52.168;20.878;2024-01-27T05:59:53;100524.87;;;2.52;79.05
50484;BME280;36409;52.168;20.878;2024-01-27T06:02:23;100532.61;;;2.52;79.69
50484;BME280;36409;52.168;20.878;2024-01-27T06:04:55;100530.03;;;2.52;79.72
50484;BME280;36409;52.168;20.878;2024-01-27T06:07:24;100528.33;;;2.54;78.88
50484;BME280;36409;52.168;20.878;2024-01-27T06:09:54;100530.91;;;2.54;78.87
50484;BME280;36409;52.168;20.878;2024-01-27T06:12:23;100526.62;;;2.53;78.78
50484;BME280;36409;52.168;20.878;2024-01-27T06:14:54;100535.20;;;2.53;79.39
50484;BME280;36409;52.168;20.878;2024-01-27T06:17:28;100545.52;;;2.53;79.80
50484;BME280;36409;52.168;20.878;2024-01-27T06:19:57;100549.81;;;2.53;79.24
50484;BME280;36409;52.168;20.878;2024-01-27T06:22:28;100548.07;;;2.52;79.70
50484;BME280;36409;52.168;20.878;2024-01-27T06:25:02;100551.43;;;2.49;79.47
50484;BME280;36409;52.168;20.878;2024-01-27T06:27:31;100550.57;;;2.49;79.62
50484;BME280;36409;52.168;20.878;2024-01-27T06:30:02;100561.64;;;2.44;78.97
50484;BME280;36409;52.168;20.878;2024-01-27T06:32:31;100559.88;;;2.42;78.63
50484;BME280;36409;52.168;20.878;2024-01-27T06:35:00;100562.37;;;2.39;79.50
50484;BME280;36409;52.168;20.878;2024-01-27T06:37:30;100560.61;;;2.36;79.01
50484;BME280;36409;52.168;20.878;2024-01-27T06:39:59;100564.84;;;2.34;78.76
50484;BME280;36409;52.168;20.878;2024-01-27T06:42:30;100563.00;;;2.28;79.04
50484;BME280;36409;52.168;20.878;2024-01-27T06:44:59;100574.97;;;2.26;78.92
50484;BME280;36409;52.168;20.878;2024-01-27T06:47:28;100568.03;;;2.22;79.04
50484;BME280;36409;52.168;20.878;2024-01-27T06:49:57;100578.33;;;2.22;79.24
50484;BME280;36409;52.168;20.878;2024-01-27T06:52:28;100580.00;;;2.20;78.73
50484;BME280;36409;52.168;20.878;2024-01-27T06:55:00;100572.25;;;2.19;78.66
50484;BME280;36409;52.168;20.878;2024-01-27T06:57:33;100578.17;;;2.16;79.06
50484;BME280;36409;52.168;20.878;2024-01-27T07:00:02;100577.31;;;2.15;79.10
50484;BME280;36409;52.168;20.878;2024-01-27T07:02:32;100575.57;;;2.14;78.74
50484;BME280;36409;52.168;20.878;2024-01-27T07:05:02;100582.38;;;2.12;78.74
50484;BME280;36409;52.168;20.878;2024-01-27T07:07:34;100576.37;;;2.12;79.12
50484;BME280;36409;52.168;20.878;2024-01-27T07:10:06;100575.47;;;2.10;79.08
50484;BME280;36409;52.168;20.878;2024-01-27T07:12:36;100582.36;;;2.11;79.15
50484;BME280;36409;52.168;20.878;2024-01-27T07:15:07;100588.37;;;2.11;79.81
50484;BME280;36409;52.168;20.878;2024-01-27T07:17:36;100588.37;;;2.11;79.55
50484;BME280;36409;52.168;20.878;2024-01-27T07:20:13;100590.11;;;2.12;79.00
50484;BME280;36409;52.168;20.878;2024-01-27T07:22:42;100590.11;;;2.12;79.23
50484;BME280;36409;52.168;20.878;2024-01-27T07:25:15;100602.98;;;2.12;79.60
50484;BME280;36409;52.168;20.878;2024-01-27T07:27:48;100611.61;;;2.13;79.76
50484;BME280;36409;52.168;20.878;2024-01-27T07:30:22;100608.14;;;2.12;79.47
50484;BME280;36409;52.168;20.878;2024-01-27T07:32:52;100603.80;;;2.10;78.93
50484;BME280;36409;52.168;20.878;2024-01-27T07:35:23;100602.87;;;2.08;79.41
50484;BME280;36409;52.168;20.878;2024-01-27T07:37:53;100601.97;;;2.06;79.12
50484;BME280;36409;52.168;20.878;2024-01-27T07:40:22;100608.00;;;2.06;79.79
50484;BME280;36409;52.168;20.878;2024-01-27T07:42:51;100610.50;;;2.03;79.73
50484;BME280;36409;52.168;20.878;2024-01-27T07:45:24;100612.22;;;2.03;79.85
50484;BME280;36409;52.168;20.878;2024-01-27T07:47:53;100608.75;;;2.02;79.11
50484;BME280;36409;52.168;20.878;2024-01-27T07:50:24;100615.63;;;2.02;79.96
50484;BME280;36409;52.168;20.878;2024-01-27T07:52:53;100625.86;;;2.00;79.41
50484;BME280;36409;52.168;20.878;2024-01-27T07:55:23;100609.55;;;1.99;79.71
50484;BME280;36409;52.168;20.878;2024-01-27T07:57:51;100611.30;;;2.00;79.58
50484;BME280;36409;52.168;20.878;2024-01-27T08:00:23;100613.87;;;2.00;79.69
50484;BME280;36409;52.168;20.878;2024-01-27T08:02:52;100624.17;;;2.00;79.06
50484;BME280;36409;52.168;20.878;2024-01-27T08:05:24;100608.64;;;1.97;79.59
50484;BME280;36409;52.168;20.878;2024-01-27T08:07:55;100612.94;;;1.97;79.16
50484;BME280;36409;52.168;20.878;2024-01-27T08:10:26;100626.64;;;1.96;79.37
50484;BME280;36409;52.168;20.878;2024-01-27T08:12:58;100627.50;;;1.96;79.64
50484;BME280;36409;52.168;20.878;2024-01-27T08:15:27;100634.36;;;1.96;79.33
50484;BME280;36409;52.168;20.878;2024-01-27T08:18:05;100629.98;;;1.93;79.19
50484;BME280;36409;52.168;20.878;2024-01-27T08:20:38;100629.95;;;1.92;79.29
50484;BME280;36409;52.168;20.878;2024-01-27T08:23:07;100627.38;;;1.92;80.10
50484;BME280;36409;52.168;20.878;2024-01-27T08:25:36;100623.98;;;1.93;80.13
50484;BME280;36409;52.168;20.878;2024-01-27T08:28:07;100633.48;;;1.95;79.88
50484;BME280;36409;52.168;20.878;2024-01-27T08:30:42;100624.89;;;1.95;79.36
50484;BME280;36409;52.168;20.878;2024-01-27T08:33:11;100632.64;;;1.96;79.74
50484;BME280;36409;52.168;20.878;2024-01-27T08:35:42;100634.42;;;1.99;80.19
50484;BME280;36409;52.168;20.878;2024-01-27T08:38:11;100635.25;;;1.98;79.82
50484;BME280;36409;52.168;20.878;2024-01-27T08:40:41;100634.48;;;2.00;79.51
50484;BME280;36409;52.168;20.878;2024-01-27T08:43:09;100649.09;;;2.02;79.83
50484;BME280;36409;52.168;20.878;2024-01-27T08:45:39;100638.00;;;2.04;80.34
50484;BME280;36409;52.168;20.878;2024-01-27T08:48:08;100640.66;;;2.07;80.41
50484;BME280;36409;52.168;20.878;2024-01-27T08:50:39;100648.49;;;2.12;79.52
50484;BME280;36409;52.168;20.878;2024-01-27T08:53:08;100643.36;;;2.13;80.08
50484;BME280;36409;52.168;20.878;2024-01-27T08:55:37;100649.45;;;2.17;79.74
50484;BME280;36409;52.168;20.878;2024-01-27T08:58:07;100657.27;;;2.20;79.81
50484;BME280;36409;52.168;20.878;2024-01-27T09:00:39;100658.13;;;2.21;80.22
50484;BME280;36409;52.168;20.878;2024-01-27T09:03:14;100661.62;;;2.23;80.37
50484;BME280;36409;52.168;20.878;2024-01-27T09:05:46;100659.93;;;2.23;79.52
50484;BME280;36409;52.168;20.878;2024-01-27T09:08:17;100677.97;;;2.23;80.37
50484;BME280;36409;52.168;20.878;2024-01-27T09:10:52;100677.97;;;2.23;80.17
50484;BME280;36409;52.168;20.878;2024-01-27T09:13:22;100676.24;;;2.24;80.56
50484;BME280;36409;52.168;20.878;2024-01-27T09:15:52;100684.86;;;2.24;80.04
50484;BME280;36409;52.168;20.878;2024-01-27T09:18:24;100679.73;;;2.26;80.57
50484;BME280;36409;52.168;20.878;2024-01-27T09:20:56;100686.66;;;2.28;80.41
50484;BME280;36409;52.168;20.878;2024-01-27T09:23:34;100686.66;;;2.28;79.72
50484;BME280;36409;52.168;20.878;2024-01-27T09:26:06;100698.80;;;2.33;80.31
50484;BME280;36409;52.168;20.878;2024-01-27T09:28:39;100697.16;;;2.36;79.90
50484;BME280;36409;52.168;20.878;2024-01-27T09:31:11;100703.25;;;2.40;80.19
50484;BME280;36409;52.168;20.878;2024-01-27T09:33:41;100705.89;;;2.41;80.15
50484;BME280;36409;52.168;20.878;2024-01-27T09:36:11;100702.51;;;2.44;80.04
50484;BME280;36409;52.168;20.878;2024-01-27T09:38:40;100702.59;;;2.47;80.04
50484;BME280;36409;52.168;20.878;2024-01-27T09:41:09;100713.84;;;2.51;80.48
50484;BME280;36409;52.168;20.878;2024-01-27T09:43:42;100716.52;;;2.55;80.45
50484;BME280;36409;52.168;20.878;2024-01-27T09:46:12;100714.86;;;2.57;80.59
50484;BME280;36409;52.168;20.878;2024-01-27T09:48:42;100718.32;;;2.59;79.94
50484;BME280;36409;52.168;20.878;2024-01-27T09:51:17;100720.06;;;2.60;79.98
50484;BME280;36409;52.168;20.878;2024-01-27T09:53:52;100724.36;;;2.60;80.84
50484;BME280;36409;52.168;20.878;2024-01-27T09:56:25;100725.20;;;2.59;80.24
50484;BME280;36409;52.168;20.878;2024-01-27T09:58:59;100728.69;;;2.61;79.89
50484;BME280;36409;52.168;20.878;2024-01-27T10:01:38;100728.69;;;2.61;80.69
50484;BME280;36409;52.168;20.878;2024-01-27T10:04:14;100733.84;;;2.61;81.04
50484;BME280;36409;52.168;20.878;2024-01-27T10:06:43;100726.03;;;2.58;80.75
50484;BME280;36409;52.168;20.878;2024-01-27T10:09:13;100732.93;;;2.59;80.29
50484;BME280;36409;52.168;20.878;2024-01-27T10:11:50;100743.27;;;2.60;80.15
50484;BME280;36409;52.168;20.878;2024-01-27T10:14:22;100739.97;;;2.66;80.10
50484;BME280;36409;52.168;20.878;2024-01-27T10:16:51;100747.03;;;2.73;80.20
50484;BME280;36409;52.168;20.878;2024-01-27T10:19:26;100735.99;;;2.79;81.07
50484;BME280;36409;52.168;20.878;2024-01-27T10:22:06;100754.98;;;2.83;80.24
50484;BME280;36409;52.168;20.878;2024-01-27T10:24:37;100763.63;;;2.85;80.62
50484;BME280;36409;52.168;20.878;2024-01-27T10:27:06;100765.31;;;2.84;80.48
50484;BME280;36409;52.168;20.878;2024-01-27T10:29:39;100763.66;;;2.86;80.40
50484;BME280;36409;52.168;20.878;2024-01-27T10:32:12;100769.64;;;2.85;80.59
50484;BME280;36409;52.168;20.878;2024-01-27T10:34:41;100770.48;;;2.84;80.60
50484;BME280;36409;52.168;20.878;2024-01-27T10:37:13;100770.48;;;2.84;80.59
50484;BME280;36409;52.168;20.878;2024-01-27T10:39:42;100774.77;;;2.84;80.22
50484;BME280;36409;52.168;20.878;2024-01-27T10:42:12;100776.46;;;2.83;80.45
50484;BME280;36409;52.168;20.878;2024-01-27T10:44:45;100784.20;;;2.83;80.33
50484;BME280;36409;52.168;20.878;2024-01-27T10:47:17;100785.95;;;2.84;81.05
50484;BME280;36409;52.168;20.878;2024-01-27T10:50:00;100791.99;;;2.85;80.36
50484;BME280;36409;52.168;20.878;2024-01-27T10:52:34;100797.15;;;2.85;80.50
50484;BME280;36409;52.168;20.878;2024-01-27T10:55:10;100798.90;;;2.86;80.59
50484;BME280;36409;52.168;20.878;2024-01-27T10:57:41;100798.81;;;2.83;80.69
50484;BME280;36409;52.168;20.878;2024-01-27T11:00:19;100808.23;;;2.82;81.03
50484;BME280;36409;52.168;20.878;2024-01-27T11:02:53;100814.28;;;2.83;80.39
50484;BME280;36409;52.168;20.878;2024-01-27T11:05:24;100814.26;;;2.81;80.19
50484;BME280;36409;52.168;20.878;2024-01-27T11:07:55;100814.26;;;2.81;80.63
50484;BME280;36409;52.168;20.878;2024-01-27T11:10:25;100820.27;;;2.82;80.98
50484;BME280;36409;52.168;20.878;2024-01-27T11:12:57;100823.70;;;2.82;80.64
50484;BME280;36409;52.168;20.878;2024-01-27T11:15:28;100828.84;;;2.81;81.12
50484;BME280;36409;52.168;20.878;2024-01-27T11:18:01;100827.06;;;2.78;80.52
50484;BME280;36409;52.168;20.878;2024-01-27T11:20:36;100844.11;;;2.73;80.59
50484;BME280;36409;52.168;20.878;2024-01-27T11:23:14;100844.91;;;2.70;80.32
50484;BME280;36409;52.168;20.878;2024-01-27T11:26:01;100843.14;;;2.68;80.88
50484;BME280;36409;52.168;20.878;2024-01-27T11:28:32;100856.77;;;2.63;80.56
50484;BME280;36409;52.168;20.878;2024-01-27T11:31:07;100861.00;;;2.61;81.13
50484;BME280;36409;52.168;20.878;2024-01-27T11:33:42;100866.93;;;2.57;80.42
50484;BME280;36409;52.168;20.878;2024-01-27T11:36:23;100866.84;;;2.54;80.89
50484;BME280;36409;52.168;20.878;2024-01-27T11:42:08;100882.19;;;2.50;81.18
50484;BME280;36409;52.168;20.878;2024-01-27T11:44:38;100890.72;;;2.47;80.31
50484;BME280;36409;52.168;20.878;2024-01-27T11:47:15;100889.80;;;2.45;81.26
50484;BME280;36409;52.168;20.878;2024-01-27T11:49:52;100902.67;;;2.45;80.99
50484;BME280;36409;52.168;20.878;2024-01-27T11:52:28;100901.76;;;2.43;81.13
50484;BME280;36409;52.168;20.878;2024-01-27T11:55:03;100914.67;;;2.44;81.11
50484;BME280;36409;52.168;20.878;2024-01-27T11:57:35;100918.05;;;2.42;81.22
50484;BME280;36409;52.168;20.878;2024-01-27T12:00:11;100924.86;;;2.40;80.92
50484;BME280;36409;52.168;20.878;2024-01-27T12:02:43;100924.76;;;2.37;80.67
50484;BME280;36409;52.168;20.878;2024-01-27T12:05:14;100931.59;;;2.35;80.19
50484;BME280;36409;52.168;20.878;2024-01-27T12:07:44;100936.66;;;2.31;80.63
50484;BME280;36409;52.168;20.878;2024-01-27T12:10:15;100935.70;;;2.28;80.90
50484;BME280;36409;52.168;20.878;2024-01-27T12:12:46;100947.75;;;2.29;81.18
50484;BME280;36409;52.168;20.878;2024-01-27T12:15:21;100950.27;;;2.27;80.68
50484;BME280;36409;52.168;20.878;2024-01-27T12:17:54;100952.91;;;2.29;80.37
50484;BME280;36409;52.168;20.878;2024-01-27T12:20:23;100963.11;;;2.26;81.26
50484;BME280;36409;52.168;20.878;2024-01-27T12:23:05;100966.48;;;2.23;80.47
50484;BME280;36409;52.168;20.878;2024-01-27T12:25:35;100968.96;;;2.20;80.42
50484;BME280;36409;52.168;20.878;2024-01-27T12:28:08;100973.19;;;2.18;81.12
50484;BME280;36409;52.168;20.878;2024-01-27T12:30:57;100983.49;;;2.18;80.73
50484;BME280;36409;52.168;20.878;2024-01-27T12:33:26;100987.78;;;2.18;81.32
50484;BME280;36409;52.168;20.878;2024-01-27T12:35:56;100998.02;;;2.16;81.19
50484;BME280;36409;52.168;20.878;2024-01-27T12:38:33;100996.27;;;2.15;80.78
50484;BME280;36409;52.168;20.878;2024-01-27T12:41:03;101004.00;;;2.15;80.70
50484;BME280;36409;52.168;20.878;2024-01-27T12:43:34;101005.75;;;2.16;81.50
50484;BME280;36409;52.168;20.878;2024-01-27T12:46:04;101016.94;;;2.16;81.49
50484;BME280;36409;52.168;20.878;2024-01-27T12:48:36;101022.95;;;2.17;80.61
50484;BME280;36409;52.168;20.878;2024-01-27T12:51:10;101022.12;;;2.18;80.57
50484;BME280;36409;52.168;20.878;2024-01-27T12:53:41;101024.74;;;2.20;81.24
50484;BME280;36409;52.168;20.878;2024-01-27T12:56:14;101041.13;;;2.22;81.38
50484;BME280;36409;52.168;20.878;2024-01-27T12:58:44;101040.27;;;2.21;81.36
50484;BME280;36409;52.168;20.878;2024-01-27T13:01:29;101030.89;;;2.23;81.67
50484;BME280;36409;52.168;20.878;2024-01-27T13:03:58;101045.52;;;2.24;81.32
50484;BME280;36409;52.168;20.878;2024-01-27T13:06:29;101044.77;;;2.28;81.27
50484;BME280;36409;52.168;20.878;2024-01-27T13:09:01;101052.50;;;2.28;81.40
50484;BME280;36409;52.168;20.878;2024-01-27T13:11:35;101052.56;;;2.30;81.38
50484;BME280;36409;52.168;20.878;2024-01-27T13:14:05;101059.50;;;2.33;80.67